<?xml version="1.0" encoding="UTF-8" standalone="no" ?>
<gpx xmlns="http://www.topografix.com/GPX/1/1" xmlns:xsi="http://www.w3.org/2001/XMLSchema-instance" xsi:schemaLocation="http://www.topografix.com/GPX/1/1 http://www.topografix.com/GPX/1/1/gpx.xsd" version="1.1" creator="VisuGPX - https://www.visugpx.com">
  <metadata>
    <name>Tiercé_Soucelle</name>
    <desc><![CDATA[Sortie du 21/09/2012]]></desc>
  </metadata>
  <wpt lat="47.61859" lon="-0.45966">
    <ele>60</ele>
    <name><![CDATA[KM 0.000 (START)]]></name>
    <desc><![CDATA[[Taken at 09/21/2012 16:52:24]
]]></desc>
  </wpt>
  <wpt lat="47.61858" lon="-0.4599">
    <ele>70</ele>
    <name><![CDATA[KM 14.680 (END)]]></name>
    <desc><![CDATA[[Taken at 09/21/2012 18:00:14]
]]></desc>
  </wpt>
  <trk>
    <name><![CDATA[TRIP0004]]></name>
    <trkseg>
      <trkpt lat="47.61859" lon="-0.45966">
        <ele>60</ele>
        <time>2012-09-21T14:52:24Z</time>
      </trkpt>
      <trkpt lat="47.61802" lon="-0.4598">
        <ele>58</ele>
        <time>2012-09-21T14:52:57Z</time>
      </trkpt>
      <trkpt lat="47.61753" lon="-0.46125">
        <ele>54</ele>
        <time>2012-09-21T14:53:40Z</time>
      </trkpt>
      <trkpt lat="47.61627" lon="-0.46139">
        <ele>50</ele>
        <time>2012-09-21T14:54:23Z</time>
      </trkpt>
      <trkpt lat="47.61512" lon="-0.46152">
        <ele>47</ele>
        <time>2012-09-21T14:55:05Z</time>
      </trkpt>
      <trkpt lat="47.61472" lon="-0.46048">
        <ele>54</ele>
        <time>2012-09-21T14:55:49Z</time>
      </trkpt>
      <trkpt lat="47.6158" lon="-0.46083">
        <ele>60</ele>
        <time>2012-09-21T14:56:32Z</time>
      </trkpt>
      <trkpt lat="47.61477" lon="-0.46147">
        <ele>54</ele>
        <time>2012-09-21T14:57:14Z</time>
      </trkpt>
      <trkpt lat="47.61499" lon="-0.46052">
        <ele>52</ele>
        <time>2012-09-21T14:57:57Z</time>
      </trkpt>
      <trkpt lat="47.61498" lon="-0.4622">
        <ele>63</ele>
        <time>2012-09-21T14:58:40Z</time>
      </trkpt>
      <trkpt lat="47.61294" lon="-0.46387">
        <ele>53</ele>
        <time>2012-09-21T14:59:23Z</time>
      </trkpt>
      <trkpt lat="47.61159" lon="-0.46491">
        <ele>78</ele>
        <time>2012-09-21T15:00:06Z</time>
      </trkpt>
      <trkpt lat="47.61284" lon="-0.46179">
        <ele>4</ele>
        <time>2012-09-21T15:00:48Z</time>
      </trkpt>
      <trkpt lat="47.61446" lon="-0.45735">
        <ele>46</ele>
        <time>2012-09-21T15:01:31Z</time>
      </trkpt>
      <trkpt lat="47.61496" lon="-0.45505">
        <ele>65</ele>
        <time>2012-09-21T15:02:14Z</time>
      </trkpt>
      <trkpt lat="47.61411" lon="-0.454">
        <ele>73</ele>
        <time>2012-09-21T15:02:58Z</time>
      </trkpt>
      <trkpt lat="47.6128" lon="-0.45357">
        <ele>80</ele>
        <time>2012-09-21T15:03:40Z</time>
      </trkpt>
      <trkpt lat="47.61142" lon="-0.45309">
        <ele>83</ele>
        <time>2012-09-21T15:04:23Z</time>
      </trkpt>
      <trkpt lat="47.61007" lon="-0.45263">
        <ele>83</ele>
        <time>2012-09-21T15:05:06Z</time>
      </trkpt>
      <trkpt lat="47.6087" lon="-0.45208">
        <ele>89</ele>
        <time>2012-09-21T15:05:49Z</time>
      </trkpt>
      <trkpt lat="47.60731" lon="-0.45157">
        <ele>86</ele>
        <time>2012-09-21T15:06:32Z</time>
      </trkpt>
      <trkpt lat="47.60602" lon="-0.45072">
        <ele>81</ele>
        <time>2012-09-21T15:07:15Z</time>
      </trkpt>
      <trkpt lat="47.60479" lon="-0.44972">
        <ele>76</ele>
        <time>2012-09-21T15:07:58Z</time>
      </trkpt>
      <trkpt lat="47.60359" lon="-0.44865">
        <ele>72</ele>
        <time>2012-09-21T15:08:42Z</time>
      </trkpt>
      <trkpt lat="47.60275" lon="-0.44711">
        <ele>78</ele>
        <time>2012-09-21T15:09:25Z</time>
      </trkpt>
      <trkpt lat="47.60173" lon="-0.44575">
        <ele>69</ele>
        <time>2012-09-21T15:10:08Z</time>
      </trkpt>
      <trkpt lat="47.60066" lon="-0.44444">
        <ele>76</ele>
        <time>2012-09-21T15:10:51Z</time>
      </trkpt>
      <trkpt lat="47.5996" lon="-0.44311">
        <ele>74</ele>
        <time>2012-09-21T15:11:34Z</time>
      </trkpt>
      <trkpt lat="47.59856" lon="-0.44186">
        <ele>75</ele>
        <time>2012-09-21T15:12:18Z</time>
      </trkpt>
      <trkpt lat="47.59876" lon="-0.44035">
        <ele>75</ele>
        <time>2012-09-21T15:13:00Z</time>
      </trkpt>
      <trkpt lat="47.59962" lon="-0.43886">
        <ele>73</ele>
        <time>2012-09-21T15:13:43Z</time>
      </trkpt>
      <trkpt lat="47.60046" lon="-0.43745">
        <ele>73</ele>
        <time>2012-09-21T15:14:26Z</time>
      </trkpt>
      <trkpt lat="47.60129" lon="-0.43587">
        <ele>76</ele>
        <time>2012-09-21T15:15:08Z</time>
      </trkpt>
      <trkpt lat="47.60222" lon="-0.43425">
        <ele>78</ele>
        <time>2012-09-21T15:15:52Z</time>
      </trkpt>
      <trkpt lat="47.6031" lon="-0.43275">
        <ele>79</ele>
        <time>2012-09-21T15:16:34Z</time>
      </trkpt>
      <trkpt lat="47.60275" lon="-0.43152">
        <ele>81</ele>
        <time>2012-09-21T15:17:17Z</time>
      </trkpt>
      <trkpt lat="47.60142" lon="-0.43102">
        <ele>77</ele>
        <time>2012-09-21T15:17:59Z</time>
      </trkpt>
      <trkpt lat="47.60017" lon="-0.43034">
        <ele>83</ele>
        <time>2012-09-21T15:18:42Z</time>
      </trkpt>
      <trkpt lat="47.59883" lon="-0.42999">
        <ele>83</ele>
        <time>2012-09-21T15:19:24Z</time>
      </trkpt>
      <trkpt lat="47.59755" lon="-0.42956">
        <ele>85</ele>
        <time>2012-09-21T15:20:07Z</time>
      </trkpt>
      <trkpt lat="47.59629" lon="-0.42911">
        <ele>83</ele>
        <time>2012-09-21T15:20:48Z</time>
      </trkpt>
      <trkpt lat="47.59495" lon="-0.42848">
        <ele>85</ele>
        <time>2012-09-21T15:21:32Z</time>
      </trkpt>
      <trkpt lat="47.59395" lon="-0.42729">
        <ele>88</ele>
        <time>2012-09-21T15:22:14Z</time>
      </trkpt>
      <trkpt lat="47.59324" lon="-0.42567">
        <ele>89</ele>
        <time>2012-09-21T15:22:57Z</time>
      </trkpt>
      <trkpt lat="47.59257" lon="-0.42393">
        <ele>91</ele>
        <time>2012-09-21T15:23:40Z</time>
      </trkpt>
      <trkpt lat="47.59232" lon="-0.4221">
        <ele>91</ele>
        <time>2012-09-21T15:24:22Z</time>
      </trkpt>
      <trkpt lat="47.59205" lon="-0.42027">
        <ele>89</ele>
        <time>2012-09-21T15:25:05Z</time>
      </trkpt>
      <trkpt lat="47.59152" lon="-0.41836">
        <ele>90</ele>
        <time>2012-09-21T15:25:47Z</time>
      </trkpt>
      <trkpt lat="47.59099" lon="-0.4165">
        <ele>93</ele>
        <time>2012-09-21T15:26:30Z</time>
      </trkpt>
      <trkpt lat="47.59052" lon="-0.41478">
        <ele>93</ele>
        <time>2012-09-21T15:27:13Z</time>
      </trkpt>
      <trkpt lat="47.5901" lon="-0.41302">
        <ele>100</ele>
        <time>2012-09-21T15:27:55Z</time>
      </trkpt>
      <trkpt lat="47.59005" lon="-0.41151">
        <ele>94</ele>
        <time>2012-09-21T15:28:37Z</time>
      </trkpt>
      <trkpt lat="47.5915" lon="-0.41139">
        <ele>93</ele>
        <time>2012-09-21T15:29:20Z</time>
      </trkpt>
      <trkpt lat="47.5927" lon="-0.41075">
        <ele>84</ele>
        <time>2012-09-21T15:30:02Z</time>
      </trkpt>
      <trkpt lat="47.59377" lon="-0.40957">
        <ele>79</ele>
        <time>2012-09-21T15:30:45Z</time>
      </trkpt>
      <trkpt lat="47.59503" lon="-0.41038">
        <ele>73</ele>
        <time>2012-09-21T15:31:29Z</time>
      </trkpt>
      <trkpt lat="47.59629" lon="-0.41087">
        <ele>76</ele>
        <time>2012-09-21T15:32:11Z</time>
      </trkpt>
      <trkpt lat="47.59762" lon="-0.41149">
        <ele>77</ele>
        <time>2012-09-21T15:32:54Z</time>
      </trkpt>
      <trkpt lat="47.59878" lon="-0.41237">
        <ele>75</ele>
        <time>2012-09-21T15:33:36Z</time>
      </trkpt>
      <trkpt lat="47.59993" lon="-0.41344">
        <ele>77</ele>
        <time>2012-09-21T15:34:19Z</time>
      </trkpt>
      <trkpt lat="47.59991" lon="-0.41481">
        <ele>72</ele>
        <time>2012-09-21T15:35:02Z</time>
      </trkpt>
      <trkpt lat="47.5993" lon="-0.41613">
        <ele>68</ele>
        <time>2012-09-21T15:35:45Z</time>
      </trkpt>
      <trkpt lat="47.6002" lon="-0.41769">
        <ele>69</ele>
        <time>2012-09-21T15:36:27Z</time>
      </trkpt>
      <trkpt lat="47.60102" lon="-0.41906">
        <ele>74</ele>
        <time>2012-09-21T15:37:09Z</time>
      </trkpt>
      <trkpt lat="47.60186" lon="-0.42068">
        <ele>76</ele>
        <time>2012-09-21T15:37:52Z</time>
      </trkpt>
      <trkpt lat="47.60285" lon="-0.42197">
        <ele>82</ele>
        <time>2012-09-21T15:38:34Z</time>
      </trkpt>
      <trkpt lat="47.60392" lon="-0.42331">
        <ele>80</ele>
        <time>2012-09-21T15:39:18Z</time>
      </trkpt>
      <trkpt lat="47.6048" lon="-0.42489">
        <ele>75</ele>
        <time>2012-09-21T15:40:01Z</time>
      </trkpt>
      <trkpt lat="47.60559" lon="-0.42641">
        <ele>77</ele>
        <time>2012-09-21T15:40:43Z</time>
      </trkpt>
      <trkpt lat="47.60618" lon="-0.42813">
        <ele>77</ele>
        <time>2012-09-21T15:41:26Z</time>
      </trkpt>
      <trkpt lat="47.60656" lon="-0.43001">
        <ele>80</ele>
        <time>2012-09-21T15:42:09Z</time>
      </trkpt>
      <trkpt lat="47.607" lon="-0.43205">
        <ele>75</ele>
        <time>2012-09-21T15:42:52Z</time>
      </trkpt>
      <trkpt lat="47.60796" lon="-0.43353">
        <ele>72</ele>
        <time>2012-09-21T15:43:34Z</time>
      </trkpt>
      <trkpt lat="47.60919" lon="-0.43444">
        <ele>71</ele>
        <time>2012-09-21T15:44:17Z</time>
      </trkpt>
      <trkpt lat="47.61045" lon="-0.43527">
        <ele>77</ele>
        <time>2012-09-21T15:45:00Z</time>
      </trkpt>
      <trkpt lat="47.61141" lon="-0.43664">
        <ele>73</ele>
        <time>2012-09-21T15:45:43Z</time>
      </trkpt>
      <trkpt lat="47.61248" lon="-0.4377">
        <ele>73</ele>
        <time>2012-09-21T15:46:26Z</time>
      </trkpt>
      <trkpt lat="47.61378" lon="-0.43834">
        <ele>75</ele>
        <time>2012-09-21T15:47:08Z</time>
      </trkpt>
      <trkpt lat="47.6148" lon="-0.4395">
        <ele>71</ele>
        <time>2012-09-21T15:47:50Z</time>
      </trkpt>
      <trkpt lat="47.6161" lon="-0.43991">
        <ele>70</ele>
        <time>2012-09-21T15:48:32Z</time>
      </trkpt>
      <trkpt lat="47.61743" lon="-0.4403">
        <ele>75</ele>
        <time>2012-09-21T15:49:15Z</time>
      </trkpt>
      <trkpt lat="47.61876" lon="-0.44068">
        <ele>82</ele>
        <time>2012-09-21T15:49:58Z</time>
      </trkpt>
      <trkpt lat="47.62014" lon="-0.44103">
        <ele>82</ele>
        <time>2012-09-21T15:50:41Z</time>
      </trkpt>
      <trkpt lat="47.62147" lon="-0.44135">
        <ele>80</ele>
        <time>2012-09-21T15:51:24Z</time>
      </trkpt>
      <trkpt lat="47.62222" lon="-0.44239">
        <ele>73</ele>
        <time>2012-09-21T15:52:07Z</time>
      </trkpt>
      <trkpt lat="47.62185" lon="-0.44434">
        <ele>71</ele>
        <time>2012-09-21T15:52:50Z</time>
      </trkpt>
      <trkpt lat="47.6216" lon="-0.4464">
        <ele>70</ele>
        <time>2012-09-21T15:53:33Z</time>
      </trkpt>
      <trkpt lat="47.62145" lon="-0.44835">
        <ele>68</ele>
        <time>2012-09-21T15:54:15Z</time>
      </trkpt>
      <trkpt lat="47.62106" lon="-0.45032">
        <ele>67</ele>
        <time>2012-09-21T15:54:58Z</time>
      </trkpt>
      <trkpt lat="47.62061" lon="-0.45233">
        <ele>64</ele>
        <time>2012-09-21T15:55:41Z</time>
      </trkpt>
      <trkpt lat="47.62049" lon="-0.45426">
        <ele>62</ele>
        <time>2012-09-21T15:56:23Z</time>
      </trkpt>
      <trkpt lat="47.62039" lon="-0.45642">
        <ele>66</ele>
        <time>2012-09-21T15:57:07Z</time>
      </trkpt>
      <trkpt lat="47.62028" lon="-0.45843">
        <ele>71</ele>
        <time>2012-09-21T15:57:49Z</time>
      </trkpt>
      <trkpt lat="47.61935" lon="-0.45946">
        <ele>75</ele>
        <time>2012-09-21T15:58:32Z</time>
      </trkpt>
      <trkpt lat="47.61885" lon="-0.45965">
        <ele>71</ele>
        <time>2012-09-21T15:59:15Z</time>
      </trkpt>
    </trkseg>
  </trk>
</gpx>